createdAt,value
2023-04-25T00:02:13.627Z,1.10
2023-04-25T00:04:41.364Z,1.20
2023-04-25T00:07:08.278Z,0.80
2023-04-25T00:09:35.038Z,1.17
2023-04-25T00:12:02.567Z,0.87
2023-04-25T00:14:30.264Z,1.20
2023-04-25T00:16:57.296Z,0.80
2023-04-25T00:19:24.012Z,1.20
2023-04-25T00:21:51.206Z,1.13
2023-04-25T00:24:17.956Z,0.70
2023-04-25T00:26:44.795Z,1.00
2023-04-25T00:29:11.629Z,1.37
2023-04-25T00:31:38.516Z,1.63
2023-04-25T00:34:05.691Z,0.80
2023-04-25T00:36:32.526Z,0.80
2023-04-25T00:38:59.260Z,1.27
2023-04-25T00:41:27.261Z,0.70
2023-04-25T00:43:55.473Z,1.00
2023-04-25T00:46:22.290Z,0.80
2023-04-25T00:48:49.054Z,1.20
2023-04-25T00:51:18.220Z,0.73
2023-04-25T00:53:46.134Z,1.40
2023-04-25T00:56:12.839Z,0.90
2023-04-25T00:58:39.700Z,0.80
2023-04-25T01:01:08.016Z,0.93
2023-04-25T01:03:36.804Z,1.17
2023-04-25T01:06:04.082Z,1.00
2023-04-25T01:08:31.441Z,1.13
2023-04-25T01:10:58.136Z,0.97
2023-04-25T01:13:24.958Z,1.10
2023-04-25T01:15:51.718Z,1.03
2023-04-25T01:18:20.081Z,0.83
2023-04-25T01:20:47.725Z,1.27
2023-04-25T01:23:15.021Z,1.00
2023-04-25T01:25:41.730Z,1.10
2023-04-25T01:28:08.875Z,0.70
2023-04-25T01:30:36.083Z,1.27
2023-04-25T01:33:03.929Z,0.60
2023-04-25T01:35:31.083Z,1.03
2023-04-25T01:37:57.833Z,1.10
2023-04-25T01:40:25.261Z,0.80
2023-04-25T01:42:52.821Z,0.50
2023-04-25T01:45:19.932Z,1.07
2023-04-25T01:47:50.285Z,0.70
2023-04-25T01:50:18.933Z,1.40
2023-04-25T01:52:46.120Z,1.00
2023-04-25T01:55:13.094Z,0.90
2023-04-25T01:57:39.901Z,1.13
2023-04-25T02:00:08.092Z,1.10
2023-04-25T02:02:34.900Z,0.80
2023-04-25T02:05:01.982Z,1.07
2023-04-25T02:07:28.718Z,1.53
2023-04-25T02:09:55.534Z,1.00
2023-04-25T02:12:22.292Z,0.97
2023-04-25T02:14:49.055Z,1.07
2023-04-25T02:17:15.821Z,1.00
2023-04-25T02:19:42.712Z,1.40
2023-04-25T02:22:09.403Z,1.80
2023-04-25T02:24:36.258Z,1.40
2023-04-25T02:27:03.068Z,1.00
2023-04-25T02:29:30.985Z,1.53
2023-04-25T02:31:57.767Z,1.23
2023-04-25T02:34:24.630Z,1.30
2023-04-25T02:36:54.009Z,1.20
2023-04-25T02:39:20.830Z,1.43
2023-04-25T02:41:47.582Z,1.37
2023-04-25T02:44:14.283Z,1.37
2023-04-25T02:46:41.041Z,1.40
2023-04-25T02:49:07.978Z,1.93
2023-04-25T02:51:34.802Z,0.73
2023-04-25T02:54:01.523Z,1.00
2023-04-25T02:56:28.365Z,0.60
2023-04-25T02:58:55.163Z,0.90
2023-04-25T03:01:21.975Z,1.20
2023-04-25T03:03:49.188Z,0.90
2023-04-25T03:06:16.949Z,1.30
2023-04-25T03:08:44.090Z,1.20
2023-04-25T03:11:11.570Z,1.00
2023-04-25T03:13:38.532Z,1.37
2023-04-25T03:16:05.801Z,0.93
2023-04-25T03:18:32.748Z,1.17
2023-04-25T03:20:59.562Z,1.13
2023-04-25T03:23:27.100Z,0.77
2023-04-25T03:25:53.954Z,1.00
2023-04-25T03:28:21.322Z,1.13
2023-04-25T03:30:48.177Z,1.10
2023-04-25T03:33:14.958Z,1.00
2023-04-25T03:35:41.831Z,0.77
2023-04-25T03:38:08.701Z,1.33
2023-04-25T03:40:35.627Z,1.30
2023-04-25T03:43:02.344Z,1.20
2023-04-25T03:45:29.144Z,1.37
2023-04-25T03:47:55.945Z,0.70
2023-04-25T03:50:22.904Z,1.10
2023-04-25T03:52:49.641Z,1.10
2023-04-25T03:55:16.634Z,1.23
2023-04-25T03:57:43.330Z,0.97
2023-04-25T04:00:11.004Z,1.00
2023-04-25T04:02:38.711Z,1.40
2023-04-25T04:05:07.111Z,1.53
2023-04-25T04:07:34.468Z,3.73
2023-04-25T04:10:01.243Z,4.00
2023-04-25T04:12:28.031Z,3.47
2023-04-25T04:14:54.732Z,2.90
2023-04-25T04:17:21.691Z,2.30
2023-04-25T04:19:48.387Z,2.27
2023-04-25T04:22:15.339Z,2.33
2023-04-25T04:24:45.022Z,2.20
2023-04-25T04:27:13.732Z,1.57
2023-04-25T04:29:40.627Z,1.73
2023-04-25T04:32:07.299Z,2.40
2023-04-25T04:34:34.949Z,2.63
2023-04-25T04:37:02.002Z,1.67
2023-04-25T04:39:28.793Z,1.90
2023-04-25T04:41:55.427Z,1.33
2023-04-25T04:44:22.221Z,2.10
2023-04-25T04:46:49.791Z,1.43
2023-04-25T04:49:16.475Z,1.30
2023-04-25T04:51:45.484Z,1.70
2023-04-25T04:54:12.292Z,2.10
2023-04-25T04:56:39.390Z,1.37
2023-04-25T04:59:06.185Z,1.50
2023-04-25T05:01:32.897Z,0.80
2023-04-25T05:04:03.787Z,1.10
2023-04-25T05:06:32.255Z,1.50
2023-04-25T05:08:59.323Z,1.60
2023-04-25T05:11:26.328Z,1.70
2023-04-25T05:13:53.857Z,1.40
2023-04-25T05:16:21.348Z,1.10
2023-04-25T05:18:48.569Z,2.23
2023-04-25T05:21:15.229Z,1.80
2023-04-25T05:23:41.917Z,2.10
2023-04-25T05:26:14.831Z,2.20
2023-04-25T05:28:42.770Z,1.70
2023-04-25T05:31:11.164Z,1.90
2023-04-25T05:33:37.974Z,2.33
2023-04-25T05:36:04.968Z,1.80
2023-04-25T05:38:34.511Z,1.30
2023-04-25T05:41:01.770Z,1.20
2023-04-25T05:43:28.479Z,1.40
2023-04-25T05:45:55.499Z,1.47
2023-04-25T05:48:22.337Z,1.30
2023-04-25T05:50:49.225Z,1.37
2023-04-25T05:53:16.020Z,1.20
2023-04-25T05:55:42.711Z,1.00
2023-04-25T05:58:09.467Z,1.10
2023-04-25T06:00:36.365Z,0.73
2023-04-25T06:03:03.523Z,1.70
2023-04-25T06:05:30.983Z,1.50
2023-04-25T06:07:57.993Z,2.70
2023-04-25T06:10:24.744Z,3.00
2023-04-25T06:12:51.496Z,3.70
2023-04-25T06:15:28.023Z,2.90
2023-04-25T06:17:55.884Z,3.20
2023-04-25T06:20:25.137Z,3.17
2023-04-25T06:22:55.301Z,4.10
2023-04-25T06:25:22.306Z,2.53
2023-04-25T06:27:49.155Z,2.00
2023-04-25T06:30:16.400Z,2.73
2023-04-25T06:32:43.160Z,2.00
2023-04-25T06:35:11.334Z,3.00
2023-04-25T06:37:38.018Z,2.80
2023-04-25T06:40:05.316Z,2.53
2023-04-25T06:42:32.037Z,2.70
2023-04-25T06:44:58.772Z,3.20
2023-04-25T06:47:25.490Z,2.57
2023-04-25T06:49:52.252Z,3.20
2023-04-25T06:52:19.202Z,3.20
2023-04-25T06:54:46.481Z,3.10
2023-04-25T06:57:13.306Z,3.30
2023-04-25T06:59:40.061Z,3.20
2023-04-25T07:02:07.248Z,3.57
2023-04-25T07:04:34.188Z,2.77
2023-04-25T07:07:03.810Z,2.80
2023-04-25T07:09:31.272Z,2.93
2023-04-25T07:11:58.022Z,3.13
2023-04-25T07:14:25.179Z,3.50
2023-04-25T07:16:52.096Z,4.07
2023-04-25T07:19:18.965Z,4.03
2023-04-25T07:21:45.639Z,5.20
2023-04-25T07:24:12.507Z,3.50
2023-04-25T07:26:39.296Z,3.67
2023-04-25T07:29:06.122Z,4.80
2023-04-25T07:31:32.961Z,4.10
2023-04-25T07:34:01.863Z,2.67
2023-04-25T07:36:28.995Z,2.87
2023-04-25T07:38:55.792Z,2.60
2023-04-25T07:41:22.512Z,2.33
2023-04-25T07:43:49.386Z,3.47
2023-04-25T07:46:16.289Z,2.70
2023-04-25T07:48:43.105Z,1.83
2023-04-25T07:51:09.698Z,2.30
2023-04-25T07:53:38.759Z,1.40
2023-04-25T07:56:05.922Z,2.03
2023-04-25T07:58:32.925Z,1.83
2023-04-25T08:00:59.990Z,2.00
2023-04-25T08:03:27.131Z,1.40
2023-04-25T08:05:54.447Z,1.80
2023-04-25T08:08:21.432Z,1.30
2023-04-25T08:10:49.442Z,1.80
2023-04-25T08:13:16.607Z,1.90
2023-04-25T08:15:43.404Z,1.83
2023-04-25T08:18:10.355Z,1.50
2023-04-25T08:20:37.067Z,1.70
2023-04-25T08:23:03.795Z,1.53
2023-04-25T08:25:30.496Z,1.83
2023-04-25T08:27:58.244Z,2.27
2023-04-25T08:30:25.173Z,3.10
2023-04-25T08:32:52.304Z,1.60
2023-04-25T08:35:19.256Z,2.03
2023-04-25T08:37:46.504Z,1.90
2023-04-25T08:40:15.778Z,1.73
2023-04-25T08:42:43.166Z,1.63
2023-04-25T08:45:10.975Z,1.67
2023-04-25T08:47:39.526Z,2.10
2023-04-25T08:50:07.761Z,1.80
2023-04-25T08:52:44.131Z,2.53
2023-04-25T08:55:11.996Z,1.93
2023-04-25T08:57:39.420Z,1.50
2023-04-25T09:00:06.981Z,1.30
2023-04-25T09:02:34.496Z,1.20
2023-04-25T09:05:01.461Z,1.33
2023-04-25T09:07:28.448Z,1.77
2023-04-25T09:09:55.396Z,1.10
2023-04-25T09:12:22.616Z,1.37
2023-04-25T09:15:10.106Z,1.00
2023-04-25T09:17:41.368Z,0.80
2023-04-25T09:20:13.259Z,0.93
2023-04-25T09:22:40.421Z,0.77
2023-04-25T09:25:13.677Z,0.60
2023-04-25T09:27:53.966Z,0.80
2023-04-25T09:30:31.027Z,1.00
2023-04-25T09:32:59.219Z,0.90
2023-04-25T09:35:27.488Z,1.30
2023-04-25T09:37:54.239Z,1.30
2023-04-25T09:40:21.165Z,1.03
2023-04-25T09:42:47.844Z,0.73
2023-04-25T09:45:16.201Z,0.90
2023-04-25T09:47:45.154Z,0.43
2023-04-25T09:50:16.992Z,0.60
2023-04-25T09:52:44.158Z,0.90
2023-04-25T09:55:10.940Z,0.57
2023-04-25T09:57:41.059Z,0.87
2023-04-25T10:00:12.048Z,0.63
2023-04-25T10:02:39.870Z,0.80
2023-04-25T10:05:07.567Z,0.73
2023-04-25T10:07:35.198Z,1.17
2023-04-25T10:10:07.120Z,0.40
2023-04-25T10:12:34.868Z,0.70
2023-04-25T10:15:02.596Z,0.70
2023-04-25T10:17:29.641Z,0.77
2023-04-25T10:19:56.672Z,0.80
2023-04-25T10:22:42.404Z,0.90
2023-04-25T10:25:10.130Z,0.90
2023-04-25T10:27:37.098Z,1.53
2023-04-25T10:30:12.251Z,0.60
2023-04-25T10:32:39.138Z,0.90
2023-04-25T10:35:18.539Z,0.97
2023-04-25T10:38:06.925Z,1.23
2023-04-25T10:40:34.559Z,0.70
2023-04-25T10:43:32.436Z,0.70
2023-04-25T10:46:01.509Z,0.83
2023-04-25T10:48:31.479Z,0.83
2023-04-25T10:51:11.403Z,0.50
2023-04-25T10:53:38.283Z,0.97
2023-04-25T10:56:22.337Z,0.90
2023-04-25T10:58:51.355Z,1.00
2023-04-25T11:01:25.945Z,1.10
2023-04-25T11:03:59.304Z,0.70
2023-04-25T11:06:29.106Z,0.77
2023-04-25T11:08:56.059Z,1.30
2023-04-25T11:11:22.842Z,0.40
2023-04-25T11:13:51.170Z,0.60
2023-04-25T11:19:05.536Z,1.00
2023-04-25T11:21:33.027Z,0.60
2023-04-25T11:24:01.378Z,0.70
2023-04-25T11:26:28.097Z,0.43
2023-04-25T11:29:00.460Z,0.70
2023-04-25T11:31:27.363Z,0.60
2023-04-25T11:34:00.522Z,0.57
2023-04-25T11:36:27.961Z,0.53
2023-04-25T11:38:55.180Z,0.90
2023-04-25T11:41:23.418Z,0.60
2023-04-25T11:43:50.964Z,1.30
2023-04-25T11:46:17.845Z,1.00
2023-04-25T11:48:45.706Z,1.10
2023-04-25T11:51:12.470Z,0.50
2023-04-25T11:53:43.012Z,0.77
2023-04-25T11:56:13.004Z,0.87
2023-04-25T11:59:02.428Z,0.70
2023-04-25T12:01:36.859Z,1.00
2023-04-25T12:04:23.192Z,0.80
2023-04-25T12:06:55.566Z,0.60
2023-04-25T12:09:29.732Z,0.60
2023-04-25T12:11:58.049Z,0.47
2023-04-25T12:14:28.193Z,0.70
2023-04-25T12:17:00.806Z,0.63
2023-04-25T12:19:31.229Z,0.60
2023-04-25T12:21:59.455Z,0.60
2023-04-25T12:24:28.742Z,0.73
2023-04-25T12:27:07.378Z,1.00
2023-04-25T12:29:48.571Z,1.10
2023-04-25T12:32:16.382Z,0.70
2023-04-25T12:34:43.322Z,0.90
2023-04-25T12:37:10.457Z,1.60
2023-04-25T12:39:37.389Z,0.70
2023-04-25T12:42:06.238Z,1.07
2023-04-25T12:44:35.241Z,0.80
2023-04-25T12:47:02.250Z,1.20
2023-04-25T12:49:29.074Z,0.67
2023-04-25T12:51:55.867Z,0.60
2023-04-25T12:54:22.541Z,0.67
2023-04-25T12:56:49.470Z,1.27
2023-04-25T12:59:16.564Z,0.60
2023-04-25T13:01:44.013Z,1.13
2023-04-25T13:04:11.026Z,0.77
2023-04-25T13:06:37.931Z,0.73
2023-04-25T13:09:05.436Z,0.83
2023-04-25T13:11:33.008Z,1.33
2023-04-25T13:13:59.901Z,0.90
2023-04-25T13:16:26.667Z,0.70
2023-04-25T13:18:53.433Z,0.77
2023-04-25T13:21:20.285Z,0.63
2023-04-25T13:23:47.837Z,0.90
2023-04-25T13:26:14.763Z,0.90
2023-04-25T13:28:43.627Z,0.77
2023-04-25T13:31:11.770Z,0.77
2023-04-25T13:33:38.557Z,0.57
2023-04-25T13:36:05.428Z,0.80
2023-04-25T13:38:33.080Z,1.07
2023-04-25T13:40:59.938Z,0.70
2023-04-25T13:43:26.681Z,0.70
2023-04-25T13:45:53.432Z,1.10
2023-04-25T13:48:21.340Z,0.47
2023-04-25T13:50:48.184Z,0.83
2023-04-25T13:53:15.271Z,0.60
2023-04-25T13:55:42.129Z,0.90
2023-04-25T13:58:09.218Z,0.77
2023-04-25T14:00:40.641Z,0.67
2023-04-25T14:03:11.131Z,0.60
2023-04-25T14:05:39.443Z,0.47
2023-04-25T14:08:11.563Z,1.80
2023-04-25T14:10:38.621Z,0.50
2023-04-25T14:13:07.353Z,0.50
2023-04-25T14:15:35.863Z,0.30
2023-04-25T14:18:02.871Z,0.30
2023-04-25T14:20:29.919Z,0.30
2023-04-25T14:22:59.112Z,0.40
2023-04-25T14:25:26.482Z,0.30
2023-04-25T14:27:53.241Z,0.40
2023-04-25T14:30:21.468Z,0.40
2023-04-25T14:32:52.565Z,0.40
2023-04-25T14:35:19.482Z,0.40
2023-04-25T14:37:46.199Z,2.33
2023-04-25T14:40:14.392Z,0.50
2023-04-25T14:42:41.377Z,0.37
2023-04-25T14:45:09.743Z,0.70
2023-04-25T14:47:38.299Z,0.40
2023-04-25T14:50:06.090Z,0.60
2023-04-25T14:52:32.875Z,0.40
2023-04-25T14:55:01.495Z,0.47
2023-04-25T14:57:28.405Z,0.53
2023-04-25T14:59:55.458Z,0.60
2023-04-25T15:02:22.539Z,0.40
2023-04-25T15:04:49.531Z,0.90
2023-04-25T15:07:18.347Z,0.53
2023-04-25T15:09:45.859Z,0.90
2023-04-25T15:12:13.281Z,0.83
2023-04-25T15:14:40.004Z,0.90
2023-04-25T15:17:07.260Z,0.87
2023-04-25T15:19:33.968Z,1.27
2023-04-25T15:22:02.456Z,1.00
2023-04-25T15:24:30.113Z,0.70
2023-04-25T15:26:56.735Z,0.93
2023-04-25T15:29:23.560Z,1.03
2023-04-25T15:31:50.312Z,1.43
2023-04-25T15:34:17.161Z,1.37
2023-04-25T15:36:43.953Z,1.20
2023-04-25T15:39:11.020Z,0.90
2023-04-25T15:41:38.068Z,0.70
2023-04-25T15:44:05.440Z,0.90
2023-04-25T15:46:32.316Z,0.70
2023-04-25T15:48:59.121Z,0.53
2023-04-25T15:51:27.010Z,0.73
2023-04-25T15:53:54.267Z,0.57
2023-04-25T15:56:21.569Z,0.30
2023-04-25T15:58:48.770Z,0.30
2023-04-25T16:01:15.870Z,0.30
2023-04-25T16:03:47.265Z,0.20
2023-04-25T16:06:14.150Z,0.20
2023-04-25T16:08:41.936Z,0.20
2023-04-25T16:11:08.759Z,0.40
2023-04-25T16:13:36.003Z,0.20
2023-04-25T16:16:02.868Z,0.20
2023-04-25T16:18:30.033Z,0.20
2023-04-25T16:20:56.768Z,0.20
2023-04-25T16:23:23.566Z,0.20
2023-04-25T16:25:50.828Z,0.40
2023-04-25T16:28:17.960Z,0.33
2023-04-25T16:30:44.906Z,0.30
2023-04-25T16:33:11.857Z,0.60
2023-04-25T16:35:38.654Z,1.43
2023-04-25T16:38:05.566Z,1.13
2023-04-25T16:40:32.258Z,6.10
2023-04-25T16:42:59.066Z,4.07
2023-04-25T16:45:26.941Z,0.63
2023-04-25T16:47:53.656Z,0.30
2023-04-25T16:50:20.791Z,0.20
2023-04-25T16:52:47.550Z,0.20
2023-04-25T16:55:14.363Z,0.20
2023-04-25T16:57:41.396Z,0.20
2023-04-25T17:00:10.673Z,0.20
2023-04-25T17:02:37.596Z,0.20
2023-04-25T17:05:05.399Z,0.20
2023-04-25T17:07:32.502Z,0.20
2023-04-25T17:09:59.487Z,0.20
2023-04-25T17:12:26.216Z,0.20
2023-04-25T17:14:52.851Z,0.20
2023-04-25T17:17:19.766Z,0.20
2023-04-25T17:19:46.748Z,0.30
2023-04-25T17:22:13.525Z,0.30
2023-04-25T17:24:41.809Z,0.20
2023-04-25T17:27:08.777Z,0.20
2023-04-25T17:29:35.705Z,0.20
2023-04-25T17:32:03.313Z,0.20
2023-04-25T17:34:31.827Z,0.20
2023-04-25T17:36:58.812Z,0.20
2023-04-25T17:39:25.699Z,0.20
2023-04-25T17:41:52.766Z,0.20
2023-04-25T17:44:19.518Z,0.20
2023-04-25T17:46:46.319Z,0.20
2023-04-25T17:49:13.087Z,0.20
2023-04-25T17:51:39.789Z,0.20
2023-04-25T17:54:06.882Z,0.20
2023-04-25T17:56:36.339Z,0.23
2023-04-25T17:59:03.179Z,0.40
2023-04-25T18:01:30.469Z,0.30
2023-04-25T18:03:57.183Z,0.20
2023-04-25T18:06:24.095Z,0.30
2023-04-25T18:08:51.082Z,0.30
2023-04-25T18:11:17.955Z,0.80
2023-04-25T18:13:44.648Z,0.57
2023-04-25T18:16:11.680Z,0.67
2023-04-25T18:18:38.613Z,0.40
2023-04-25T18:21:07.923Z,0.30
2023-04-25T18:27:24.343Z,0.20
2023-04-25T18:29:51.034Z,0.30
2023-04-25T18:32:17.792Z,0.20
2023-04-25T18:34:46.231Z,0.20
2023-04-25T18:37:14.384Z,0.57
2023-04-25T18:39:41.412Z,0.90
2023-04-25T18:42:08.647Z,0.50
2023-04-25T18:44:40.069Z,0.43
2023-04-25T18:47:08.095Z,0.60
2023-04-25T18:49:34.809Z,0.90
2023-04-25T18:52:02.777Z,0.60
2023-04-25T18:54:29.526Z,0.80
2023-04-25T18:56:57.518Z,0.90
2023-04-25T18:59:24.218Z,0.73
2023-04-25T19:01:52.389Z,0.50
2023-04-25T19:04:19.390Z,0.40
2023-04-25T19:06:46.513Z,0.50
2023-04-25T19:09:13.534Z,0.30
2023-04-25T19:11:40.335Z,0.30
2023-04-25T19:14:07.016Z,0.20
2023-04-25T19:16:38.925Z,0.30
2023-04-25T19:19:06.350Z,0.30
2023-04-25T19:21:33.475Z,0.50
2023-04-25T19:24:01.589Z,0.30
2023-04-25T19:26:28.589Z,0.40
2023-04-25T19:29:14.987Z,0.20
2023-04-25T19:31:43.528Z,0.20
2023-04-25T19:34:10.593Z,0.27
2023-04-25T19:36:38.943Z,0.70
2023-04-25T19:39:07.381Z,6.10
2023-04-25T19:41:36.720Z,5.00
2023-04-25T19:44:07.798Z,2.00
2023-04-25T19:46:35.680Z,0.70
2023-04-25T19:49:06.038Z,0.60
2023-04-25T19:51:34.136Z,0.30
2023-04-25T19:54:00.875Z,0.67
2023-04-25T19:56:27.891Z,0.80
2023-04-25T19:58:55.024Z,3.60
2023-04-25T20:01:22.861Z,2.50
2023-04-25T20:03:53.124Z,1.67
2023-04-25T20:06:20.124Z,0.70
2023-04-25T20:08:47.594Z,0.40
2023-04-25T20:11:16.746Z,0.23
2023-04-25T20:13:45.375Z,0.60
2023-04-25T20:16:12.195Z,0.30
2023-04-25T20:18:39.734Z,0.30
2023-04-25T20:21:08.106Z,0.20
2023-04-25T20:23:35.842Z,0.20
2023-04-25T20:26:04.678Z,0.57
2023-04-25T20:28:31.772Z,0.23
2023-04-25T20:30:59.789Z,0.30
2023-04-25T20:33:26.601Z,0.20
2023-04-25T20:35:53.317Z,0.30
2023-04-25T20:38:20.108Z,0.20
2023-04-25T20:40:46.814Z,0.83
2023-04-25T20:43:14.639Z,0.60
2023-04-25T20:45:41.748Z,0.57
2023-04-25T20:48:08.929Z,0.67
2023-04-25T20:50:36.280Z,0.37
2023-04-25T20:53:04.353Z,0.43
2023-04-25T20:55:31.287Z,0.30
2023-04-25T20:57:58.986Z,0.20
2023-04-25T21:00:29.340Z,0.30
2023-04-25T21:02:56.997Z,0.40
2023-04-25T21:05:24.073Z,0.80
2023-04-25T21:07:54.706Z,0.50
2023-04-25T21:10:21.335Z,0.30
2023-04-25T21:12:49.667Z,0.40
2023-04-25T21:15:22.887Z,0.40
2023-04-25T21:17:50.656Z,0.53
2023-04-25T21:20:19.158Z,0.30
2023-04-25T21:22:51.967Z,0.30
2023-04-25T21:25:31.190Z,0.40
2023-04-25T21:27:59.803Z,0.57
2023-04-25T21:30:26.528Z,0.90
2023-04-25T21:32:53.496Z,0.30
2023-04-25T21:35:21.289Z,0.50
2023-04-25T21:37:48.400Z,0.40
2023-04-25T21:40:15.297Z,0.30
2023-04-25T21:42:46.007Z,0.30
2023-04-25T21:45:12.939Z,0.47
2023-04-25T21:47:39.675Z,0.30
2023-04-25T21:50:07.543Z,0.30
2023-04-25T21:52:35.233Z,0.40
2023-04-25T21:55:01.939Z,0.20
2023-04-25T21:57:29.301Z,0.30
2023-04-25T21:59:56.695Z,0.43
2023-04-25T22:02:23.565Z,0.60
2023-04-25T22:04:50.792Z,0.63
2023-04-25T22:07:17.471Z,0.30
2023-04-25T22:09:54.331Z,0.40
2023-04-25T22:12:22.923Z,0.30
2023-04-25T22:14:49.700Z,0.40
2023-04-25T22:17:16.295Z,0.30
2023-04-25T22:19:43.369Z,0.40
2023-04-25T22:22:10.084Z,0.50
2023-04-25T22:24:36.782Z,0.50
2023-04-25T22:27:03.420Z,0.40
2023-04-25T22:29:30.019Z,0.40
2023-04-25T22:31:56.835Z,0.33
2023-04-25T22:34:23.658Z,0.40
2023-04-25T22:36:50.248Z,0.20
2023-04-25T22:39:17.062Z,0.20
2023-04-25T22:41:43.703Z,0.50
2023-04-25T22:44:11.299Z,0.20
2023-04-25T22:46:37.982Z,0.30
2023-04-25T22:49:04.979Z,0.40
2023-04-25T22:51:32.198Z,0.40
2023-04-25T22:53:59.251Z,0.40
2023-04-25T22:56:27.023Z,0.40
2023-04-25T22:58:53.940Z,0.30
2023-04-25T23:01:21.215Z,0.40
2023-04-25T23:03:48.598Z,0.40
2023-04-25T23:06:15.468Z,0.30
2023-04-25T23:08:42.188Z,0.27
2023-04-25T23:11:09.028Z,0.40
2023-04-25T23:13:38.934Z,0.40
2023-04-25T23:16:10.852Z,0.70
2023-04-25T23:18:39.352Z,0.33
2023-04-25T23:21:09.506Z,0.40
2023-04-25T23:23:36.705Z,0.40
2023-04-25T23:26:12.275Z,0.53
2023-04-25T23:28:41.690Z,0.50
2023-04-25T23:31:10.249Z,0.37
2023-04-25T23:33:37.309Z,0.50
2023-04-25T23:36:04.318Z,0.50
2023-04-25T23:38:31.121Z,0.40
2023-04-25T23:40:57.816Z,0.30
2023-04-25T23:43:24.620Z,0.30
2023-04-25T23:45:51.379Z,0.67
2023-04-25T23:48:18.194Z,0.40
2023-04-25T23:50:44.892Z,0.40
2023-04-25T23:53:11.613Z,0.83
2023-04-25T23:55:38.476Z,0.40
2023-04-25T23:58:05.171Z,0.63
